Time;durP1;ratioP1;P1;durP2;ratioP2;P2;SDS_P1;SDS_P2;PMS_P1;PMS_P2;Temp;Humidity;BMP_temperature;BMP_pressure;BME280_temperature;BME280_humidity;BME280_pressure;Samples;Min_cycle;Max_cycle;Signal;HPM_P1;HPM_P2
2021/09/25 00:03:58;;;;;;;1.30;1.23;;;;;;;8.32;80.69;98977.75;6416546;22;20021;-75
2021/09/25 00:06:24;;;;;;;3.65;3.22;;;;;;;8.33;80.79;98985.47;6401661;22;20018;-76
2021/09/25 00:08:52;;;;;;;1.92;1.92;;;;;;;8.36;81.12;98977.47;6428359;22;20058;-77
2021/09/25 00:11:18;;;;;;;4.30;3.92;;;;;;;8.40;80.09;98969.50;6396187;22;20017;-76
2021/09/25 00:13:44;;;;;;;2.03;1.83;;;;;;;8.36;80.70;98974.88;6397946;22;20093;-77
2021/09/25 00:16:11;;;;;;;3.35;3.10;;;;;;;8.34;81.16;98973.31;6397595;22;20018;-77
2021/09/25 00:18:37;;;;;;;3.58;3.38;;;;;;;8.33;80.44;98969.03;6397745;22;20037;-76
2021/09/25 00:21:03;;;;;;;5.18;3.00;;;;;;;8.33;81.19;98979.41;6397373;22;20014;-76
2021/09/25 00:23:29;;;;;;;2.75;2.55;;;;;;;8.35;80.87;98974.94;6397609;22;20452;-76
2021/09/25 00:26:10;;;;;;;3.67;3.35;;;;;;;8.33;80.47;98969.88;6396562;22;20014;-76
2021/09/25 00:28:36;;;;;;;3.58;3.38;;;;;;;8.33;81.00;98966.41;6397669;22;20044;-76
2021/09/25 00:31:02;;;;;;;3.10;2.90;;;;;;;8.29;80.75;98957.97;6397759;22;20089;-77
2021/09/25 00:33:28;;;;;;;2.33;2.22;;;;;;;8.28;81.30;98963.25;6410668;22;20009;-76
2021/09/25 00:35:54;;;;;;;1.10;1.05;;;;;;;8.30;80.62;98958.81;6416844;22;20017;-74
2021/09/25 00:38:20;;;;;;;3.78;3.58;;;;;;;8.27;80.98;98952.00;6415065;22;20021;-76
2021/09/25 00:40:46;;;;;;;4.78;2.92;;;;;;;8.25;81.09;98950.41;6405453;22;20018;-77
2021/09/25 00:43:12;;;;;;;3.17;2.97;;;;;;;8.25;81.51;98956.44;6294064;22;20094;-76
2021/09/25 00:45:37;;;;;;;3.00;2.80;;;;;;;8.27;81.32;98957.19;6345267;22;20017;-78
2021/09/25 00:48:03;;;;;;;4.65;4.28;;;;;;;8.27;80.95;98954.59;6397863;22;20018;-76
2021/09/25 00:50:30;;;;;;;3.92;3.63;;;;;;;8.16;81.10;98938.78;6399358;22;20018;-76
2021/09/25 00:52:56;;;;;;;4.07;3.88;;;;;;;8.26;81.15;98958.13;6397885;22;20017;-76
2021/09/25 00:55:22;;;;;;;3.45;3.28;;;;;;;8.24;80.99;98953.94;6399157;22;20018;-75
2021/09/25 00:57:50;;;;;;;4.43;4.00;;;;;;;8.24;81.39;98944.38;6399282;22;20364;-76
2021/09/25 01:00:16;;;;;;;1.02;1.02;;;;;;;8.24;81.73;98959.16;6344780;22;20068;-77
2021/09/25 01:02:42;;;;;;;3.40;3.10;;;;;;;8.23;81.58;98958.31;6424000;22;20384;-76
2021/09/25 01:05:08;;;;;;;2.50;2.40;;;;;;;8.20;81.39;98948.09;6399278;22;20018;-78
2021/09/25 01:07:34;;;;;;;4.97;4.47;;;;;;;8.23;81.43;98958.31;6397723;22;20041;-75
2021/09/25 01:10:00;;;;;;;3.33;3.10;;;;;;;8.20;81.87;98955.03;6399368;22;20014;-76
2021/09/25 01:12:26;;;;;;;1.13;1.13;;;;;;;8.22;81.42;98960.97;6398786;22;20096;-78
2021/09/25 01:14:52;;;;;;;2.45;2.33;;;;;;;8.24;81.23;98954.78;6397784;22;20060;-75
2021/09/25 01:17:18;;;;;;;3.78;3.53;;;;;;;8.24;81.24;98960.00;6397025;22;20445;-76
2021/09/25 01:19:44;;;;;;;3.15;2.95;;;;;;;8.23;82.05;98966.09;6397483;22;20010;-75
2021/09/25 01:22:10;;;;;;;2.60;2.47;;;;;;;8.22;81.31;98967.03;6397038;22;20499;-75
2021/09/25 01:24:37;;;;;;;3.00;2.90;;;;;;;8.23;82.06;98973.06;6397237;22;20013;-75
2021/09/25 01:27:03;;;;;;;2.95;2.38;;;;;;;8.18;81.63;98964.72;6397184;22;20642;-75
2021/09/25 01:29:31;;;;;;;3.53;3.25;;;;;;;8.19;82.16;98972.41;6397013;22;20014;-74
2021/09/25 01:31:57;;;;;;;2.13;2.03;;;;;;;8.19;82.42;98977.59;6398815;22;20025;-73
2021/09/25 01:34:23;;;;;;;1.48;1.25;;;;;;;8.15;82.42;98975.25;6398619;22;20023;-74
2021/09/25 01:36:49;;;;;;;1.10;1.10;;;;;;;8.09;82.25;98971.28;6398750;22;20017;-75
2021/09/25 01:39:15;;;;;;;3.88;3.53;;;;;;;8.16;82.40;98977.78;6398728;22;20053;-76
2021/09/25 01:41:41;;;;;;;3.08;2.25;;;;;;;8.16;82.26;98975.19;6398721;22;20391;-75
2021/09/25 01:44:07;;;;;;;2.72;2.63;;;;;;;8.15;82.79;98976.09;6396841;22;20021;-75
2021/09/25 01:46:34;;;;;;;1.58;1.58;;;;;;;8.13;82.49;98972.78;6370572;22;20422;-77
2021/09/25 01:49:00;;;;;;;0.90;0.90;;;;;;;8.08;82.58;98974.78;6318933;22;20014;-75
2021/09/25 01:51:27;;;;;;;1.98;1.88;;;;;;;8.12;82.68;98991.03;6396885;22;20018;-76
2021/09/25 01:53:53;;;;;;;4.35;3.17;;;;;;;8.08;83.15;98992.19;6398850;22;20018;-76
2021/09/25 01:56:18;;;;;;;3.17;1.83;;;;;;;8.10;82.95;98982.50;6398688;22;20507;-76
2021/09/25 01:58:44;;;;;;;2.92;2.72;;;;;;;8.08;82.97;98984.38;6399239;22;20678;-76
2021/09/25 02:01:10;;;;;;;11.05;3.20;;;;;;;8.08;82.79;98979.19;6397097;22;20037;-77
2021/09/25 02:03:36;;;;;;;9.40;4.20;;;;;;;8.08;82.92;98977.38;6398025;22;20764;-76
2021/09/25 02:06:03;;;;;;;2.53;2.38;;;;;;;8.06;82.96;98979.25;6396993;22;20018;-78
2021/09/25 02:08:29;;;;;;;1.75;1.75;;;;;;;8.08;83.03;98985.19;6396890;22;20062;-76
2021/09/25 02:10:55;;;;;;;3.67;3.47;;;;;;;8.09;82.92;98986.03;6398274;22;20045;-79
2021/09/25 02:13:21;;;;;;;1.88;1.85;;;;;;;8.10;82.94;98991.16;6398388;22;20014;-78
2021/09/25 02:15:47;;;;;;;3.42;3.22;;;;;;;8.10;83.05;98992.91;6398583;22;20393;-77
2021/09/25 02:18:13;;;;;;;3.70;3.50;;;;;;;8.10;83.29;98983.34;6398457;22;20021;-76
2021/09/25 02:20:39;;;;;;;2.70;2.60;;;;;;;8.10;82.70;98979.91;6398659;22;20013;-76
2021/09/25 02:23:05;;;;;;;3.47;3.22;;;;;;;8.07;82.57;98969.69;6398246;22;20461;-76
2021/09/25 02:25:31;;;;;;;11.70;2.90;;;;;;;8.09;83.18;98980.81;6370381;22;20017;-77
2021/09/25 02:27:57;;;;;;;2.38;2.28;;;;;;;8.09;82.70;98978.22;6398332;22;20093;-76
2021/09/25 02:30:22;;;;;;;3.75;3.55;;;;;;;8.09;82.33;98979.06;6398002;22;20041;-74
2021/09/25 02:32:48;;;;;;;1.67;1.60;;;;;;;8.09;82.60;98976.47;6398147;22;20018;-75
2021/09/25 02:35:16;;;;;;;3.72;3.45;;;;;;;8.09;82.76;98981.66;6397959;22;20045;-76
2021/09/25 02:37:42;;;;;;;15.00;2.17;;;;;;;8.07;82.95;98972.31;6396706;22;20018;-76
2021/09/25 02:40:09;;;;;;;1.52;1.42;;;;;;;8.08;82.68;98968.78;6370117;22;20123;-76
2021/09/25 02:42:35;;;;;;;2.97;2.78;;;;;;;8.04;83.07;98955.13;6397931;22;20021;-75
2021/09/25 02:45:01;;;;;;;3.38;3.08;;;;;;;8.06;82.97;98975.81;6398189;22;20014;-76
2021/09/25 02:47:27;;;;;;;4.47;4.13;;;;;;;8.02;83.08;98969.13;6397820;22;20020;-75
2021/09/25 02:49:53;;;;;;;4.53;4.22;;;;;;;8.05;83.07;98982.78;6398273;22;20010;-75
2021/09/25 02:52:19;;;;;;;2.17;2.08;;;;;;;8.05;82.83;98980.16;6397880;22;20018;-78
2021/09/25 02:54:44;;;;;;;2.03;1.92;;;;;;;8.04;83.31;98981.13;6397986;22;20018;-77
2021/09/25 02:57:10;;;;;;;2.90;2.65;;;;;;;8.04;83.28;98977.69;6370291;22;20062;-76
2021/09/25 02:59:36;;;;;;;2.92;2.72;;;;;;;8.02;82.87;98969.97;6396701;22;20016;-76
2021/09/25 03:02:02;;;;;;;2.03;2.00;;;;;;;8.00;83.41;98974.41;6397971;22;20096;-78
2021/09/25 03:04:28;;;;;;;4.05;3.75;;;;;;;8.03;82.99;98970.78;6396380;22;20475;-77
2021/09/25 03:06:54;;;;;;;9.73;3.45;;;;;;;8.00;83.40;98982.22;6369882;22;20025;-77
2021/09/25 03:09:22;;;;;;;3.80;2.50;;;;;;;8.02;83.34;98977.75;6397986;22;20021;-77
2021/09/25 03:11:49;;;;;;;2.70;2.58;;;;;;;7.99;83.17;98970.13;6398058;22;20013;-77
2021/09/25 03:14:15;;;;;;;3.28;3.08;;;;;;;7.97;83.12;98965.97;6397557;22;20025;-77
2021/09/25 03:16:41;;;;;;;4.25;3.25;;;;;;;8.01;83.25;98978.69;6396733;22;20022;-77
2021/09/25 03:19:07;;;;;;;3.63;3.33;;;;;;;7.98;83.43;98983.25;6398415;22;20024;-76
2021/09/25 03:21:33;;;;;;;2.95;2.75;;;;;;;7.98;83.89;98984.06;6396452;22;20017;-75
2021/09/25 03:23:59;;;;;;;6.22;2.65;;;;;;;7.93;83.38;98970.50;6397907;22;20018;-74
2021/09/25 03:26:25;;;;;;;2.95;2.75;;;;;;;7.98;83.68;98983.25;6397687;22;20076;-74
2021/09/25 03:28:51;;;;;;;3.17;2.97;;;;;;;7.96;83.88;98988.50;6370028;22;20445;-75
2021/09/25 03:31:17;;;;;;;1.15;1.15;;;;;;;7.97;83.71;98985.00;6395986;22;20452;-74
2021/09/25 03:33:43;;;;;;;4.78;2.35;;;;;;;8.00;83.66;98990.00;6396580;22;20100;-74
2021/09/25 03:36:09;;;;;;;5.78;4.07;;;;;;;8.03;83.06;98987.22;6396097;22;20040;-75
2021/09/25 03:38:34;;;;;;;1.55;1.55;;;;;;;7.95;83.66;98984.22;6369588;22;20014;-75
2021/09/25 03:41:00;;;;;;;3.85;3.33;;;;;;;7.99;82.94;98996.13;6396552;22;20516;-76
2021/09/25 03:43:27;;;;;;;1.75;1.73;;;;;;;8.02;83.26;98993.34;6397621;22;20021;-77
2021/09/25 03:45:53;;;;;;;3.83;3.53;;;;;;;8.06;82.70;98997.44;6398848;22;20044;-77
2021/09/25 03:48:19;;;;;;;2.63;2.38;;;;;;;8.08;82.55;98997.38;6398017;22;20016;-76
2021/09/25 03:50:45;;;;;;;2.03;1.92;;;;;;;8.09;82.22;98994.66;6397331;22;20296;-77
2021/09/25 03:53:10;;;;;;;2.90;2.42;;;;;;;8.10;82.56;98985.94;6397893;22;20488;-75
2021/09/25 03:55:36;;;;;;;2.65;2.45;;;;;;;8.14;82.11;98984.84;6396346;22;20014;-75
2021/09/25 03:58:02;;;;;;;2.78;2.45;;;;;;;8.14;82.49;98987.44;6398814;22;20018;-78
2021/09/25 04:00:28;;;;;;;2.88;2.55;;;;;;;8.18;82.11;98990.72;6409851;22;20025;-78
2021/09/25 04:02:55;;;;;;;1.65;1.63;;;;;;;8.18;81.67;98985.50;6414817;22;20021;-77
2021/09/25 04:05:20;;;;;;;1.27;1.27;;;;;;;8.19;81.82;98988.00;6412324;22;20041;-76
2021/09/25 04:07:47;;;;;;;1.85;1.85;;;;;;;8.19;81.98;98980.19;6400868;22;20020;-78
2021/09/25 04:10:13;;;;;;;1.65;1.55;;;;;;;8.13;81.79;98972.78;6399503;22;20139;-76
2021/09/25 04:12:39;;;;;;;1.50;1.40;;;;;;;8.21;81.49;98977.53;6370841;22;20051;-76
2021/09/25 04:15:06;;;;;;;3.85;2.58;;;;;;;8.23;81.98;98992.09;6400093;22;20100;-76
2021/09/25 04:17:32;;;;;;;1.65;1.65;;;;;;;8.24;81.31;98985.97;6397833;22;20018;-75
2021/09/25 04:19:58;;;;;;;3.47;2.55;;;;;;;8.19;81.52;98982.81;6399815;22;20580;-76
2021/09/25 04:22:24;;;;;;;2.50;2.40;;;;;;;8.22;81.04;98987.81;6397952;22;20017;-77
2021/09/25 04:24:50;;;;;;;2.30;2.20;;;;;;;8.26;81.19;98991.06;6400221;22;20024;-75
2021/09/25 04:27:16;;;;;;;3.58;2.33;;;;;;;8.23;81.57;98989.50;6399533;22;20529;-79
2021/09/25 04:29:42;;;;;;;7.90;2.50;;;;;;;8.24;81.49;98987.75;6399984;22;20014;-77
2021/09/25 04:32:08;;;;;;;2.08;2.03;;;;;;;8.20;81.74;98981.03;6399776;22;20013;-76
2021/09/25 04:34:34;;;;;;;3.20;3.05;;;;;;;8.19;81.84;98987.16;6397806;22;20014;-75
2021/09/25 04:37:00;;;;;;;2.17;2.13;;;;;;;8.20;81.97;98978.44;6344823;22;20037;-75
2021/09/25 04:39:26;;;;;;;5.03;2.50;;;;;;;8.24;81.58;98985.97;6344704;22;20045;-76
2021/09/25 04:41:52;;;;;;;3.22;2.42;;;;;;;8.23;81.33;98986.91;6397699;22;20460;-77
2021/09/25 04:44:18;;;;;;;2.65;2.50;;;;;;;8.22;81.83;98990.41;6399082;22;20506;-78
2021/09/25 04:46:45;;;;;;;2.80;2.65;;;;;;;8.17;82.06;98976.88;6399153;22;20018;-78
2021/09/25 04:49:11;;;;;;;2.40;2.20;;;;;;;8.21;82.13;98978.34;6371617;22;20556;-78
2021/09/25 04:51:37;;;;;;;1.95;1.95;;;;;;;8.25;81.79;98982.44;6397305;22;20049;-78
2021/09/25 04:54:03;;;;;;;1.08;1.08;;;;;;;8.27;81.72;98985.81;6399086;22;20013;-76
2021/09/25 04:56:30;;;;;;;3.88;3.58;;;;;;;8.28;81.68;98987.47;6398917;22;20453;-77
2021/09/25 04:58:56;;;;;;;1.60;1.50;;;;;;;8.25;81.26;98981.59;6399293;22;20014;-75
2021/09/25 05:01:22;;;;;;;3.55;3.25;;;;;;;8.26;82.01;98980.69;6397386;22;20449;-75
2021/09/25 05:03:49;;;;;;;2.47;2.38;;;;;;;8.27;81.34;98984.97;6398788;22;20579;-77
2021/09/25 05:06:16;;;;;;;1.40;1.40;;;;;;;8.27;81.35;98975.41;6399484;22;20052;-76
2021/09/25 05:08:42;;;;;;;2.95;2.80;;;;;;;8.28;81.54;98982.28;6398831;22;20055;-76
2021/09/25 05:11:08;;;;;;;2.20;2.10;;;;;;;8.26;81.61;98978.06;6399255;22;20037;-75
2021/09/25 05:13:35;;;;;;;2.03;2.00;;;;;;;8.29;82.11;98981.38;6399326;22;20022;-78
2021/09/25 05:16:02;;;;;;;2.05;2.00;;;;;;;8.32;81.69;98988.13;6371370;22;20018;-76
2021/09/25 05:18:27;;;;;;;2.05;1.95;;;;;;;8.31;81.90;98986.50;6396837;22;20513;-76
2021/09/25 05:20:54;;;;;;;1.27;1.27;;;;;;;8.30;81.79;98990.84;6398889;22;20018;-76
2021/09/25 05:23:20;;;;;;;2.50;2.40;;;;;;;8.30;81.87;98985.66;6396721;22;20018;-76
2021/09/25 05:25:46;;;;;;;2.33;2.15;;;;;;;8.30;81.70;98990.84;6398995;22;20093;-75
2021/09/25 05:28:12;;;;;;;2.10;2.03;;;;;;;8.34;81.73;98999.31;6398959;22;20018;-76
2021/09/25 05:30:38;;;;;;;2.22;2.13;;;;;;;8.35;81.33;98999.19;6398659;22;20018;-75
2021/09/25 05:33:05;;;;;;;1.92;1.85;;;;;;;8.40;81.29;99000.69;6397402;22;20070;-76
2021/09/25 05:35:31;;;;;;;2.33;2.22;;;;;;;8.45;81.31;98996.03;6398087;22;20018;-77
2021/09/25 05:37:57;;;;;;;2.85;2.63;;;;;;;8.38;81.37;98988.59;6399160;22;20014;-76
2021/09/25 05:40:23;;;;;;;2.45;2.35;;;;;;;8.44;81.41;98986.59;6399214;22;20025;-80
2021/09/25 05:42:49;;;;;;;1.67;1.65;;;;;;;8.47;81.09;98992.44;6397631;22;20018;-81
2021/09/25 05:45:18;;;;;;;2.08;1.98;;;;;;;8.50;81.31;98994.84;6371618;22;20445;-80
2021/09/25 05:47:44;;;;;;;7.07;1.60;;;;;;;8.56;81.38;98985.84;6397934;22;20018;-80
2021/09/25 05:50:11;;;;;;;2.10;2.00;;;;;;;8.54;81.25;98978.13;6398161;22;20025;-82
2021/09/25 05:52:37;;;;;;;3.00;2.90;;;;;;;8.49;81.15;98985.38;6371051;22;20059;-81
2021/09/25 05:55:04;;;;;;;1.75;1.75;;;;;;;8.55;80.84;98978.94;6397895;22;20043;-81
2021/09/25 05:57:30;;;;;;;2.85;2.65;;;;;;;8.54;80.95;98992.91;6399709;22;20039;-81
2021/09/25 05:59:56;;;;;;;3.50;3.25;;;;;;;8.61;80.76;98997.63;6424372;22;20101;-81
2021/09/25 06:02:22;;;;;;;3.33;3.10;;;;;;;8.74;80.80;98992.50;6400701;22;20211;-79
2021/09/25 06:04:48;;;;;;;2.53;2.33;;;;;;;8.75;80.29;98991.59;6398074;22;20017;-78
2021/09/25 06:07:15;;;;;;;4.35;2.95;;;;;;;8.85;79.91;98993.53;6397207;22;20451;-81
2021/09/25 06:09:41;;;;;;;1.52;1.50;;;;;;;8.74;80.32;99000.31;6399808;22;20018;-81
2021/09/25 06:12:08;;;;;;;2.45;2.25;;;;;;;8.83;80.69;98997.19;6397750;22;20036;-80
2021/09/25 06:14:34;;;;;;;16.27;2.30;;;;;;;8.93;80.60;99006.09;6398593;22;20048;-79
2021/09/25 06:17:00;;;;;;;2.63;2.53;;;;;;;8.98;80.39;99008.41;6397091;22;20024;-81
2021/09/25 06:19:26;;;;;;;2.45;2.35;;;;;;;8.96;79.62;99000.69;6397768;22;20384;-80
2021/09/25 06:21:53;;;;;;;2.55;2.45;;;;;;;9.02;79.88;99009.88;6399763;22;20364;-82
2021/09/25 06:24:18;;;;;;;2.35;2.25;;;;;;;9.05;79.85;99002.72;6397393;22;20100;-82
2021/09/25 06:26:44;;;;;;;1.38;1.38;;;;;;;8.99;79.98;99010.91;6371017;22;20041;-80
2021/09/25 06:29:19;;;;;;;2.72;2.53;;;;;;;8.92;79.93;99000.97;6398777;22;20020;-80
2021/09/25 06:31:47;;;;;;;2.90;2.80;;;;;;;8.92;80.09;99017.41;6371860;22;20384;-79
2021/09/25 06:34:13;;;;;;;3.55;2.95;;;;;;;8.98;79.77;99013.59;6398954;22;20032;-79
2021/09/25 06:36:41;;;;;;;4.47;4.18;;;;;;;8.95;80.01;99004.22;6396860;22;20018;-74
2021/09/25 06:39:07;;;;;;;4.15;3.45;;;;;;;8.92;79.44;99006.16;6399803;22;20014;-78
2021/09/25 06:41:33;;;;;;;2.80;2.60;;;;;;;8.95;79.75;98988.59;6344077;22;20079;-78
2021/09/25 06:44:03;;;;;;;4.07;1.95;;;;;;;8.99;79.62;99000.50;6339108;22;20021;-78
2021/09/25 06:46:29;;;;;;;2.72;2.53;;;;;;;9.05;79.36;99000.13;6398265;22;20022;-77
2021/09/25 06:48:55;;;;;;;1.80;1.70;;;;;;;9.08;79.38;99004.28;6396030;22;20368;-76
2021/09/25 06:51:21;;;;;;;5.85;3.20;;;;;;;9.09;79.37;98999.00;6342410;22;20071;-77
2021/09/25 06:53:47;;;;;;;3.00;2.67;;;;;;;9.14;79.31;98999.53;6396480;22;20089;-77
2021/09/25 06:56:13;;;;;;;3.30;3.08;;;;;;;9.10;78.66;98992.00;6342994;22;20023;-76
2021/09/25 06:58:39;;;;;;;2.70;2.60;;;;;;;9.16;78.84;98987.25;6396232;22;20402;-78
2021/09/25 07:01:05;;;;;;;1.85;1.75;;;;;;;9.24;78.60;98992.81;6391527;22;20084;-79
2021/09/25 07:03:31;;;;;;;9.80;3.72;;;;;;;9.26;78.37;98996.16;6391122;22;20021;-79
2021/09/25 07:05:57;;;;;;;2.63;2.50;;;;;;;9.27;78.96;98990.00;6366243;22;20387;-78
2021/09/25 07:08:23;;;;;;;2.42;2.33;;;;;;;9.28;78.79;98986.50;6367205;22;20013;-78
2021/09/25 07:10:50;;;;;;;2.95;2.85;;;;;;;9.21;78.34;98980.00;6391225;22;20093;-78
2021/09/25 07:13:17;;;;;;;7.47;3.70;;;;;;;9.15;78.55;98971.72;6366498;22;20104;-78
2021/09/25 07:15:43;;;;;;;2.50;2.40;;;;;;;9.23;78.59;98987.69;6419970;22;20064;-78
2021/09/25 07:18:10;;;;;;;4.63;4.30;;;;;;;9.27;79.22;98991.78;6342062;22;20656;-79
2021/09/25 07:20:36;;;;;;;4.45;3.08;;;;;;;9.20;78.56;98975.72;6369485;22;20574;-80
2021/09/25 07:23:02;;;;;;;2.22;2.13;;;;;;;9.13;79.19;98961.41;6410336;22;20074;-79
2021/09/25 07:25:29;;;;;;;3.42;3.22;;;;;;;9.32;78.83;98977.56;6386380;22;20025;-78
2021/09/25 07:27:55;;;;;;;2.15;2.05;;;;;;;9.37;78.72;98988.50;6374690;22;20045;-79
2021/09/25 07:30:22;;;;;;;2.88;2.70;;;;;;;9.48;78.80;98992.19;6398456;22;20041;-79
2021/09/25 07:32:49;;;;;;;3.33;3.22;;;;;;;9.51;78.85;98981.56;6422849;22;20049;-80
2021/09/25 07:35:15;;;;;;;2.60;2.50;;;;;;;9.37;78.44;98980.69;6397658;22;20041;-79
2021/09/25 07:37:42;;;;;;;3.58;3.28;;;;;;;9.34;78.41;98980.88;6396903;22;20338;-80
2021/09/25 07:40:09;;;;;;;2.75;2.60;;;;;;;9.32;79.15;98971.50;6395658;22;20020;-82
2021/09/25 07:42:34;;;;;;;2.10;2.00;;;;;;;9.37;78.98;98970.28;6398226;22;20342;-79
2021/09/25 07:45:00;;;;;;;5.18;4.78;;;;;;;9.48;78.10;98981.78;6397438;22;20047;-80
2021/09/25 07:47:26;;;;;;;2.92;2.67;;;;;;;9.46;78.25;98971.44;6396970;22;20460;-79
2021/09/25 07:49:54;;;;;;;2.90;2.78;;;;;;;9.53;78.75;98961.44;6397046;22;20022;-82
2021/09/25 07:52:21;;;;;;;2.72;2.63;;;;;;;9.73;77.66;98972.25;6344490;22;20025;-76
2021/09/25 07:54:47;;;;;;;2.15;1.98;;;;;;;9.70;77.59;98963.81;6396597;22;20018;-78
2021/09/25 07:57:13;;;;;;;3.00;2.38;;;;;;;9.64;77.07;98972.03;6371325;22;20018;-77
2021/09/25 07:59:39;;;;;;;7.30;3.25;;;;;;;9.73;76.87;98967.06;6396911;22;20016;-77
2021/09/25 08:02:06;;;;;;;2.97;2.85;;;;;;;9.70;77.29;98966.41;6399347;22;20043;-79
2021/09/25 08:04:32;;;;;;;1.65;1.65;;;;;;;9.71;76.98;98962.88;6400066;22;20040;-81
2021/09/25 08:06:58;;;;;;;3.15;2.85;;;;;;;9.70;77.44;98956.00;6374709;22;20702;-79
2021/09/25 08:09:25;;;;;;;2.50;2.40;;;;;;;9.66;78.54;98964.94;6399201;22;20449;-81
2021/09/25 08:11:51;;;;;;;1.63;1.63;;;;;;;9.66;78.27;98959.72;6395225;22;20025;-78
2021/09/25 08:14:18;;;;;;;1.92;1.90;;;;;;;9.64;77.46;98961.59;6398048;22;20457;-78
2021/09/25 08:16:43;;;;;;;3.72;3.42;;;;;;;9.57;78.40;98960.31;6400519;22;20024;-77
2021/09/25 08:19:09;;;;;;;2.95;2.85;;;;;;;9.63;77.62;98965.13;6401135;22;20018;-79
2021/09/25 08:21:36;;;;;;;2.17;2.10;;;;;;;9.72;77.02;98967.13;6398876;22;20018;-80
2021/09/25 08:24:03;;;;;;;1.90;1.80;;;;;;;9.77;78.39;98959.88;6397963;22;20025;-76
2021/09/25 08:26:29;;;;;;;2.85;2.65;;;;;;;9.75;77.24;98974.78;6395128;22;20598;-80
2021/09/25 08:28:55;;;;;;;3.00;2.80;;;;;;;9.72;77.98;98969.75;6399829;22;20108;-82
2021/09/25 08:31:21;;;;;;;2.20;2.10;;;;;;;9.66;78.26;98973.59;6402910;22;20025;-81
2021/09/25 08:33:47;;;;;;;2.22;2.03;;;;;;;9.72;78.17;98961.91;6400958;22;20016;-73
2021/09/25 08:36:13;;;;;;;2.00;1.95;;;;;;;9.75;77.11;98959.16;6400202;22;20018;-75
2021/09/25 08:38:39;;;;;;;2.92;2.75;;;;;;;9.79;78.32;98960.59;6398832;22;20014;-76
2021/09/25 08:41:05;;;;;;;4.05;3.13;;;;;;;9.88;77.71;98966.03;6395725;22;20025;-76
2021/09/25 08:43:38;;;;;;;2.22;2.13;;;;;;;9.93;77.51;98963.13;6397878;22;20455;-74
2021/09/25 08:46:18;;;;;;;4.38;3.15;;;;;;;10.07;78.00;98963.06;6349452;22;20014;-76
2021/09/25 08:48:44;;;;;;;3.30;3.00;;;;;;;9.97;77.76;98950.72;6397307;22;20098;-76
2021/09/25 08:51:11;;;;;;;4.30;2.58;;;;;;;9.79;78.03;98956.22;6398256;22;20411;-74
2021/09/25 08:53:37;;;;;;;2.17;2.08;;;;;;;9.84;78.64;98954.16;6396163;22;20020;-76
2021/09/25 08:56:03;;;;;;;4.05;3.72;;;;;;;9.90;78.89;98955.50;6369395;22;20076;-75
2021/09/25 08:58:29;;;;;;;2.55;2.45;;;;;;;9.98;79.58;98955.81;6397307;22;20017;-71
2021/09/25 09:00:55;;;;;;;2.90;2.80;;;;;;;9.86;80.11;98954.03;6397875;22;20025;-75
2021/09/25 09:03:32;;;;;;;4.25;3.67;;;;;;;9.87;81.00;98958.31;6397770;22;20018;-74
2021/09/25 09:06:09;;;;;;;2.47;2.35;;;;;;;9.67;80.94;98935.34;6397806;22;20017;-75
2021/09/25 09:08:35;;;;;;;3.67;3.38;;;;;;;9.80;81.25;98949.22;6397470;22;20455;-74
2021/09/25 09:11:01;;;;;;;2.45;2.35;;;;;;;9.71;81.10;98942.03;6368746;22;20099;-74
2021/09/25 09:13:27;;;;;;;5.40;3.15;;;;;;;9.65;80.99;98932.81;6396917;22;20017;-76
2021/09/25 09:15:53;;;;;;;4.00;2.70;;;;;;;9.84;80.76;98935.06;6398359;22;20017;-74
2021/09/25 09:18:21;;;;;;;2.45;2.35;;;;;;;9.85;81.58;98936.72;6395566;22;20101;-76
2021/09/25 09:21:00;;;;;;;2.80;2.58;;;;;;;9.85;81.82;98942.78;6395139;22;20013;-75
2021/09/25 09:23:26;;;;;;;2.45;2.30;;;;;;;9.69;81.88;98936.06;6397324;22;20079;-73
2021/09/25 09:25:52;;;;;;;2.75;2.63;;;;;;;9.82;81.95;98935.16;6397348;22;20017;-75
2021/09/25 09:28:23;;;;;;;2.75;2.65;;;;;;;9.84;81.77;98935.06;6396912;22;20093;-75
2021/09/25 09:30:49;;;;;;;;;;;;;;;10.16;81.11;98943.34;6397462;22;20043;-73
2021/09/25 09:33:41;;;;;;;3.38;3.22;;;;;;;10.12;80.37;98952.28;6396787;22;19917;-74
2021/09/25 09:36:14;;;;;;;2.72;2.63;;;;;;;10.09;80.10;98952.50;6396694;22;20013;-73
2021/09/25 09:38:41;;;;;;;2.25;2.15;;;;;;;10.08;80.93;98953.47;6395616;22;20020;-73
2021/09/25 09:41:09;;;;;;;4.30;4.00;;;;;;;10.36;80.05;98955.88;6396766;22;20016;-75
2021/09/25 09:43:37;;;;;;;5.50;4.30;;;;;;;10.33;79.77;98950.88;6397091;22;20021;-73
2021/09/25 09:46:03;;;;;;;3.08;2.90;;;;;;;10.12;79.34;98947.91;6397632;22;20021;-73
2021/09/25 09:48:28;;;;;;;2.53;2.42;;;;;;;9.97;80.37;98943.75;6397780;22;20592;-74
2021/09/25 09:50:56;;;;;;;2.05;1.95;;;;;;;10.14;80.29;98946.09;6395442;22;20014;-77
2021/09/25 09:53:22;;;;;;;2.35;2.25;;;;;;;10.09;80.23;98945.53;6397770;22;20018;-77
2021/09/25 09:55:48;;;;;;;3.05;2.80;;;;;;;9.90;80.42;98932.06;6391558;22;20018;-77
2021/09/25 09:58:14;;;;;;;2.08;1.98;;;;;;;9.95;79.93;98943.00;6395802;22;20105;-77
2021/09/25 10:00:41;;;;;;;1.80;1.75;;;;;;;9.95;80.18;98932.56;6396145;22;20014;-78
2021/09/25 10:03:08;;;;;;;3.35;3.10;;;;;;;10.14;80.18;98934.81;6396666;22;20029;-74
2021/09/25 10:05:34;;;;;;;3.72;3.42;;;;;;;10.16;79.29;98927.72;6395330;22;20020;-76
2021/09/25 10:08:01;;;;;;;2.67;2.45;;;;;;;10.08;79.54;98930.81;6396714;22;20013;-75
2021/09/25 10:10:27;;;;;;;12.43;3.33;;;;;;;10.04;80.29;98934.56;6395664;22;20040;-75
2021/09/25 10:12:53;;;;;;;1.90;1.85;;;;;;;10.06;80.44;98937.06;6394841;22;20044;-77
2021/09/25 10:15:21;;;;;;;3.15;3.05;;;;;;;10.16;80.26;98933.78;6397335;22;20017;-75
2021/09/25 10:17:47;;;;;;;1.75;1.65;;;;;;;10.34;79.80;98936.91;6343088;22;20552;-76
2021/09/25 10:20:13;;;;;;;2.65;2.45;;;;;;;10.50;78.59;98926.25;6397198;22;20018;-76
2021/09/25 10:22:39;;;;;;;3.22;3.03;;;;;;;10.52;78.36;98926.97;6392868;22;20013;-75
2021/09/25 10:25:07;;;;;;;4.38;4.00;;;;;;;10.67;79.04;98923.28;6390175;22;20014;-75
2021/09/25 10:27:38;;;;;;;6.13;4.20;;;;;;;10.49;77.51;98916.75;6340790;22;20029;-78
2021/09/25 10:30:05;;;;;;;2.75;2.65;;;;;;;10.65;78.37;98919.94;6392377;22;20404;-78
2021/09/25 10:32:33;;;;;;;1.98;1.98;;;;;;;10.73;78.35;98928.91;6394872;22;20018;-77
2021/09/25 10:35:17;;;;;;;2.33;2.22;;;;;;;10.62;77.82;98922.78;6392471;22;20014;-74
2021/09/25 10:37:56;;;;;;;2.42;2.22;;;;;;;10.38;78.37;98923.53;6389339;22;20023;-77
2021/09/25 10:40:24;;;;;;;2.80;2.50;;;;;;;10.22;79.29;98922.06;6342994;22;20018;-76
2021/09/25 10:42:52;;;;;;;1.60;1.60;;;;;;;10.20;80.20;98924.81;6403255;22;20018;-76
2021/09/25 10:45:31;;;;;;;3.83;2.63;;;;;;;10.12;80.10;98924.44;6407023;22;20038;-76
2021/09/25 10:48:08;;;;;;;2.08;1.98;;;;;;;10.03;80.77;98919.88;6400142;22;20048;-76
2021/09/25 10:50:37;;;;;;;2.58;2.47;;;;;;;10.02;81.25;98922.56;6395509;22;20014;-77
2021/09/25 10:53:07;;;;;;;2.03;1.90;;;;;;;10.01;80.04;98910.47;6394637;22;20009;-77
2021/09/25 10:55:35;;;;;;;3.47;3.20;;;;;;;10.07;80.42;98918.72;6395991;22;20066;-76
2021/09/25 10:58:30;;;;;;;2.13;2.03;;;;;;;10.18;80.59;98913.63;6395993;22;20525;-76
2021/09/25 11:01:20;;;;;;;3.35;3.13;;;;;;;10.28;80.27;98911.22;6395474;22;20025;-77
2021/09/25 11:03:53;;;;;;;1.83;1.75;;;;;;;10.36;79.67;98915.00;6395724;22;20017;-77
2021/09/25 11:06:29;;;;;;;2.92;2.72;;;;;;;10.44;79.81;98917.88;6396732;22;20014;-77
2021/09/25 11:09:03;;;;;;;2.60;2.50;;;;;;;10.43;79.24;98921.47;6370922;22;20021;-77
2021/09/25 11:11:45;;;;;;;18.05;1.90;;;;;;;10.39;78.99;98919.16;6369890;22;20018;-77
2021/09/25 11:14:31;;;;;;;1.40;1.40;;;;;;;10.31;79.41;98919.66;6396981;22;20029;-77
2021/09/25 11:17:06;;;;;;;5.25;1.92;;;;;;;10.28;79.47;98914.66;6394700;22;20017;-75
2021/09/25 11:19:40;;;;;;;2.70;2.60;;;;;;;10.32;78.80;98918.75;6395928;22;20081;-77
2021/09/25 11:22:26;;;;;;;1.65;1.55;;;;;;;10.27;79.44;98920.84;6396212;22;20060;-76
2021/09/25 11:24:56;;;;;;;2.03;1.92;;;;;;;10.34;79.32;98922.06;6394586;22;20017;-77
2021/09/25 11:27:29;;;;;;;2.17;2.08;;;;;;;10.43;79.79;98918.84;6396378;22;20013;-75
2021/09/25 11:30:21;;;;;;;1.60;1.60;;;;;;;10.32;79.71;98904.84;6396267;22;20022;-76
2021/09/25 11:32:55;;;;;;;1.40;1.40;;;;;;;10.34;80.10;98911.63;6379264;22;20114;-77
2021/09/25 11:35:21;;;;;;;1.15;1.15;;;;;;;10.32;81.02;98913.53;6397643;22;20024;-77
2021/09/25 11:38:06;;;;;;;1.27;1.25;;;;;;;10.30;80.14;98909.34;6397073;22;20017;-76
2021/09/25 11:40:33;;;;;;;5.53;2.75;;;;;;;10.26;80.81;98903.53;6397452;22;20018;-78
2021/09/25 11:43:00;;;;;;;1.08;1.08;;;;;;;10.21;80.68;98900.38;6396656;22;20449;-77
2021/09/25 11:45:28;;;;;;;1.77;1.77;;;;;;;10.23;80.01;98903.72;6396639;22;20022;-77